createdAt,value
2019-03-21T00:01:32.351Z,13.32
2019-03-21T00:04:13.997Z,8.20
2019-03-21T00:06:44.961Z,8.55
2019-03-21T00:09:17.612Z,10.25
2019-03-21T00:12:16.132Z,11.88
2019-03-21T00:14:56.755Z,14.93
2019-03-21T00:17:31.011Z,11.03
2019-03-21T00:20:01.925Z,11.35
2019-03-21T00:22:34.165Z,14.18
2019-03-21T00:25:05.678Z,15.20
2019-03-21T00:27:36.530Z,14.40
2019-03-21T00:30:11.800Z,12.13
2019-03-21T00:32:42.769Z,8.83
2019-03-21T00:35:13.668Z,9.58
2019-03-21T00:37:44.491Z,11.10
2019-03-21T00:40:18.093Z,18.02
2019-03-21T00:42:49.071Z,14.47
2019-03-21T00:45:19.928Z,13.58
2019-03-21T00:47:50.705Z,11.50
2019-03-21T00:50:22.992Z,12.65
2019-03-21T00:52:55.037Z,11.35
2019-03-21T00:55:26.408Z,9.08
2019-03-21T00:57:58.644Z,14.25
2019-03-21T01:00:32.498Z,12.43
2019-03-21T01:03:03.821Z,10.53
2019-03-21T01:05:34.768Z,12.07
2019-03-21T01:08:05.680Z,11.20
2019-03-21T01:10:36.711Z,11.28
2019-03-21T01:13:07.649Z,14.75
2019-03-21T01:15:38.573Z,12.85
2019-03-21T01:18:09.463Z,12.40
2019-03-21T01:20:40.324Z,11.30
2019-03-21T01:23:11.706Z,10.38
2019-03-21T01:25:46.161Z,12.20
2019-03-21T01:28:17.011Z,9.00
2019-03-21T01:30:47.864Z,9.20
2019-03-21T01:33:18.720Z,12.93
2019-03-21T01:35:49.573Z,11.35
2019-03-21T01:38:20.399Z,16.20
2019-03-21T01:40:51.696Z,12.15
2019-03-21T01:43:22.577Z,11.55
2019-03-21T01:45:53.396Z,17.65
2019-03-21T01:48:24.232Z,10.93
2019-03-21T01:50:55.031Z,11.83
2019-03-21T01:53:25.880Z,11.35
2019-03-21T01:55:56.756Z,14.03
2019-03-21T01:58:27.621Z,11.48
2019-03-21T02:00:58.472Z,10.80
2019-03-21T02:03:29.328Z,9.90
2019-03-21T02:06:00.200Z,11.53
2019-03-21T02:08:31.064Z,17.30
2019-03-21T02:11:02.064Z,12.25
2019-03-21T02:13:33.086Z,18.65
2019-03-21T02:16:03.997Z,10.75
2019-03-21T02:18:34.834Z,13.65
2019-03-21T02:21:05.849Z,15.63
2019-03-21T02:23:40.133Z,14.60
2019-03-21T02:26:11.756Z,18.62
2019-03-21T02:28:42.588Z,12.25
2019-03-21T02:31:13.932Z,14.50
2019-03-21T02:33:44.831Z,11.65
2019-03-21T02:36:15.705Z,12.47
2019-03-21T02:38:46.592Z,36.73
2019-03-21T02:41:17.482Z,14.87
2019-03-21T02:43:48.344Z,14.00
2019-03-21T02:46:19.254Z,15.28
2019-03-21T02:48:50.077Z,17.85
2019-03-21T02:51:20.951Z,10.88
2019-03-21T02:53:52.889Z,13.15
2019-03-21T02:56:23.854Z,18.62
2019-03-21T02:58:54.711Z,16.65
2019-03-21T03:01:25.604Z,16.05
2019-03-21T03:03:56.554Z,11.68
2019-03-21T03:06:27.412Z,10.38
2019-03-21T03:08:58.250Z,11.65
2019-03-21T03:11:29.050Z,12.10
2019-03-21T03:13:59.921Z,16.35
2019-03-21T03:16:30.891Z,14.78
2019-03-21T03:19:01.762Z,13.60
2019-03-21T03:21:32.695Z,13.50
2019-03-21T03:24:05.501Z,11.73
2019-03-21T03:26:36.389Z,14.95
2019-03-21T03:29:07.296Z,11.65
2019-03-21T03:31:38.164Z,13.32
2019-03-21T03:34:09.010Z,11.38
2019-03-21T03:36:39.832Z,15.45
2019-03-21T03:39:10.811Z,16.40
2019-03-21T03:41:41.686Z,13.18
2019-03-21T03:44:12.533Z,18.37
2019-03-21T03:46:43.391Z,15.95
2019-03-21T03:49:15.325Z,11.03
2019-03-21T03:51:46.225Z,13.10
2019-03-21T03:54:18.879Z,15.05
2019-03-21T03:56:49.741Z,11.10
2019-03-21T03:59:20.548Z,12.58
2019-03-21T04:01:51.522Z,13.55
2019-03-21T04:04:31.852Z,18.02
2019-03-21T04:07:02.819Z,14.18
2019-03-21T04:09:33.681Z,17.75
2019-03-21T04:12:05.734Z,14.85
2019-03-21T04:14:36.600Z,16.02
2019-03-21T04:17:07.479Z,12.65
2019-03-21T04:19:38.425Z,22.15
2019-03-21T04:22:10.256Z,15.35
2019-03-21T04:24:42.132Z,16.80
2019-03-21T04:27:13.758Z,18.98
2019-03-21T04:29:44.588Z,19.05
2019-03-21T04:32:15.461Z,18.45
2019-03-21T04:34:47.149Z,14.98
2019-03-21T04:37:19.205Z,17.65
2019-03-21T04:39:50.047Z,13.10
2019-03-21T04:42:20.914Z,15.78
2019-03-21T04:44:51.801Z,14.93
2019-03-21T04:47:22.678Z,17.57
2019-03-21T04:49:53.512Z,16.67
2019-03-21T04:52:24.378Z,16.45
2019-03-21T04:54:56.737Z,18.10
2019-03-21T04:57:27.608Z,15.63
2019-03-21T04:59:58.512Z,13.80
2019-03-21T05:02:29.340Z,12.28
2019-03-21T05:05:00.212Z,17.10
2019-03-21T05:07:32.139Z,19.05
2019-03-21T05:10:03.057Z,19.10
2019-03-21T05:12:33.892Z,18.40
2019-03-21T05:15:05.091Z,21.35
2019-03-21T05:17:35.894Z,22.07
2019-03-21T05:20:09.912Z,20.50
2019-03-21T05:22:40.856Z,16.02
2019-03-21T05:25:12.760Z,18.85
2019-03-21T05:27:44.498Z,19.95
2019-03-21T05:30:18.652Z,24.98
2019-03-21T05:32:49.500Z,28.87
2019-03-21T05:35:20.339Z,21.00
2019-03-21T05:37:51.156Z,17.75
2019-03-21T05:40:22.050Z,22.73
2019-03-21T05:43:00.602Z,16.57
2019-03-21T05:45:32.460Z,15.80
2019-03-21T05:48:03.302Z,14.85
2019-03-21T05:50:34.168Z,14.38
2019-03-21T05:53:05.065Z,16.67
2019-03-21T05:55:36.873Z,20.77
2019-03-21T05:58:07.636Z,14.58
2019-03-21T06:00:40.888Z,17.35
2019-03-21T06:03:15.228Z,17.98
2019-03-21T06:05:49.248Z,31.57
2019-03-21T06:08:23.560Z,15.78
2019-03-21T06:10:54.417Z,15.05
2019-03-21T06:13:25.301Z,17.73
2019-03-21T06:15:55.456Z,15.40
2019-03-21T06:19:14.660Z,14.90
2019-03-21T06:22:20.839Z,15.32
2019-03-21T06:25:22.489Z,25.43
2019-03-21T06:27:54.565Z,15.68
2019-03-21T06:30:25.433Z,20.27
2019-03-21T06:32:56.272Z,14.90
2019-03-21T06:35:27.159Z,18.17
2019-03-21T06:37:58.033Z,21.05
2019-03-21T06:40:28.880Z,18.55
2019-03-21T06:43:00.849Z,13.93
2019-03-21T06:45:31.774Z,27.37
2019-03-21T06:48:02.663Z,21.20
2019-03-21T06:50:33.556Z,19.05
2019-03-21T06:53:04.424Z,18.27
2019-03-21T06:55:35.292Z,20.05
2019-03-21T06:58:07.527Z,18.43
2019-03-21T07:00:41.519Z,16.17
2019-03-21T07:03:12.439Z,18.82
2019-03-21T07:05:43.222Z,22.07
2019-03-21T07:08:14.102Z,16.27
2019-03-21T07:10:44.972Z,17.57
2019-03-21T07:13:15.836Z,14.55
2019-03-21T07:15:46.728Z,15.93
2019-03-21T07:18:17.578Z,14.57
2019-03-21T07:20:48.446Z,14.37
2019-03-21T07:23:19.343Z,18.60
2019-03-21T07:25:50.313Z,14.93
2019-03-21T07:28:21.180Z,18.40
2019-03-21T07:30:52.090Z,14.80
2019-03-21T07:33:22.948Z,14.20
2019-03-21T07:35:53.817Z,21.23
2019-03-21T07:38:24.709Z,14.27
2019-03-21T07:40:55.575Z,13.00
2019-03-21T07:43:26.500Z,16.63
2019-03-21T07:45:57.361Z,19.50
2019-03-21T07:48:28.230Z,13.10
2019-03-21T07:50:59.089Z,10.40
2019-03-21T07:53:30.188Z,12.63
2019-03-21T07:56:01.085Z,14.47
2019-03-21T07:58:32.545Z,14.60
2019-03-21T08:01:03.462Z,13.73
2019-03-21T08:03:34.299Z,15.07
2019-03-21T08:06:07.080Z,11.60
2019-03-21T08:08:37.728Z,12.67
2019-03-21T08:11:08.661Z,9.97
2019-03-21T08:13:39.517Z,13.70
2019-03-21T08:16:10.883Z,16.27
2019-03-21T08:18:41.753Z,20.70
2019-03-21T08:21:13.291Z,14.10
2019-03-21T08:23:44.155Z,9.90
2019-03-21T08:26:15.076Z,12.97
2019-03-21T08:28:45.988Z,9.43
2019-03-21T08:31:21.204Z,13.00
2019-03-21T08:33:52.029Z,9.97
2019-03-21T08:36:22.884Z,15.57
2019-03-21T08:38:53.705Z,11.83
2019-03-21T08:41:24.581Z,16.90
2019-03-21T08:43:56.578Z,12.50
2019-03-21T08:46:27.427Z,19.03
2019-03-21T08:48:58.262Z,11.63
2019-03-21T08:51:30.214Z,8.97
2019-03-21T08:54:01.112Z,11.60
2019-03-21T08:56:31.924Z,11.60
2019-03-21T08:59:02.937Z,9.70
2019-03-21T09:01:33.815Z,16.17
2019-03-21T09:04:04.680Z,11.23
2019-03-21T09:06:35.520Z,15.90
2019-03-21T09:09:09.437Z,16.03
2019-03-21T09:11:40.335Z,13.37
2019-03-21T09:14:11.140Z,14.50
2019-03-21T09:16:41.988Z,12.57
2019-03-21T09:19:12.874Z,10.40
2019-03-21T09:21:43.716Z,11.30
2019-03-21T09:24:14.565Z,14.57
2019-03-21T09:26:45.566Z,11.30
2019-03-21T09:29:17.148Z,17.80
2019-03-21T09:31:48.017Z,19.17
2019-03-21T09:34:18.929Z,18.67
2019-03-21T09:36:49.809Z,8.77
2019-03-21T09:39:20.696Z,11.80
2019-03-21T09:41:51.608Z,14.67
2019-03-21T09:44:28.026Z,12.03
2019-03-21T09:46:58.865Z,9.63
2019-03-21T09:49:29.761Z,11.70
2019-03-21T09:52:00.609Z,11.60
2019-03-21T09:54:32.583Z,15.27
2019-03-21T09:57:03.444Z,11.43
2019-03-21T09:59:34.392Z,11.40
2019-03-21T10:02:05.229Z,9.40
2019-03-21T10:04:36.116Z,10.10
2019-03-21T10:07:07.038Z,7.20
2019-03-21T10:09:37.953Z,17.40
2019-03-21T10:12:08.858Z,13.43
2019-03-21T10:14:39.883Z,14.60
2019-03-21T10:17:11.452Z,11.37
2019-03-21T10:19:42.309Z,6.33
2019-03-21T10:22:13.210Z,11.90
2019-03-21T10:24:44.096Z,5.07
2019-03-21T10:27:15.328Z,6.87
2019-03-21T10:29:46.194Z,4.80
2019-03-21T10:32:17.087Z,7.50
2019-03-21T10:34:47.944Z,6.47
2019-03-21T10:37:18.815Z,5.33
2019-03-21T10:39:49.702Z,8.87
2019-03-21T10:42:20.616Z,9.90
2019-03-21T10:44:51.504Z,10.83
2019-03-21T10:47:22.426Z,10.90
2019-03-21T10:49:53.255Z,7.60
2019-03-21T10:52:24.222Z,7.80
2019-03-21T10:54:55.080Z,13.57
2019-03-21T10:57:25.956Z,8.07
2019-03-21T10:59:58.124Z,10.53
2019-03-21T11:02:41.494Z,7.67
2019-03-21T11:05:12.364Z,9.73
2019-03-21T11:07:43.263Z,7.37
2019-03-21T11:10:16.404Z,8.37
2019-03-21T11:12:47.297Z,13.17
2019-03-21T11:15:18.246Z,7.97
2019-03-21T11:17:49.434Z,8.80
2019-03-21T11:20:33.972Z,7.27
2019-03-21T11:23:06.696Z,7.73
2019-03-21T11:25:37.757Z,14.57
2019-03-21T11:28:09.160Z,8.73
2019-03-21T11:30:44.998Z,11.90
2019-03-21T11:33:27.487Z,9.63
2019-03-21T11:35:59.563Z,5.90
2019-03-21T11:38:30.422Z,6.77
2019-03-21T11:41:01.295Z,10.10
2019-03-21T11:43:32.190Z,9.60
2019-03-21T11:46:03.027Z,7.30
2019-03-21T11:48:33.911Z,14.47
2019-03-21T11:51:04.742Z,8.57
2019-03-21T11:53:35.604Z,9.57
2019-03-21T11:56:06.479Z,8.53
2019-03-21T11:58:37.377Z,9.40
2019-03-21T12:01:08.599Z,7.47
2019-03-21T12:03:39.498Z,15.93
2019-03-21T12:06:10.360Z,10.53
2019-03-21T12:08:42.325Z,7.73
2019-03-21T12:11:13.551Z,16.40
2019-03-21T12:13:44.436Z,8.23
2019-03-21T12:16:15.318Z,12.63
2019-03-21T12:18:46.165Z,7.00
2019-03-21T12:21:17.033Z,8.13
2019-03-21T12:23:47.860Z,7.90
2019-03-21T12:26:18.740Z,5.93
2019-03-21T12:28:49.533Z,7.70
2019-03-21T12:31:20.739Z,8.67
2019-03-21T12:33:51.655Z,7.43
2019-03-21T12:36:22.586Z,6.50
2019-03-21T12:38:53.390Z,7.53
2019-03-21T12:41:24.266Z,11.00
2019-03-21T12:43:55.113Z,8.10
2019-03-21T12:46:26.369Z,10.20
2019-03-21T12:48:57.215Z,6.60
2019-03-21T12:51:28.221Z,6.87
2019-03-21T12:53:59.083Z,8.00
2019-03-21T12:56:31.025Z,7.53
2019-03-21T12:59:01.793Z,6.07
2019-03-21T13:01:33.111Z,8.70
2019-03-21T13:04:04.132Z,5.20
2019-03-21T13:06:35.006Z,7.27
2019-03-21T13:09:08.956Z,5.70
2019-03-21T13:11:39.857Z,5.70
2019-03-21T13:14:10.803Z,5.53
2019-03-21T13:16:41.670Z,4.70
2019-03-21T13:19:12.595Z,9.93
2019-03-21T13:21:43.561Z,4.47
2019-03-21T13:24:17.279Z,4.93
2019-03-21T13:26:46.916Z,6.73
2019-03-21T13:29:17.857Z,5.00
2019-03-21T13:31:50.347Z,5.27
2019-03-21T13:34:21.156Z,13.80
2019-03-21T13:36:52.120Z,5.57
2019-03-21T13:39:23.036Z,8.13
2019-03-21T13:41:56.477Z,6.60
2019-03-21T13:44:27.374Z,5.03
2019-03-21T13:46:58.296Z,5.20
2019-03-21T13:49:29.154Z,6.73
2019-03-21T13:52:05.155Z,6.10
2019-03-21T13:54:36.198Z,6.57
2019-03-21T13:57:07.051Z,5.97
2019-03-21T13:59:37.885Z,6.90
2019-03-21T14:02:10.112Z,7.90
2019-03-21T14:04:41.050Z,4.77
2019-03-21T14:07:12.384Z,5.47
2019-03-21T14:09:43.301Z,6.73
2019-03-21T14:12:14.227Z,7.40
2019-03-21T14:14:45.113Z,8.90
2019-03-21T14:17:34.786Z,5.63
2019-03-21T14:20:05.889Z,3.80
2019-03-21T14:22:36.812Z,6.00
2019-03-21T14:25:08.861Z,7.80
2019-03-21T14:27:40.888Z,5.73
2019-03-21T14:30:14.137Z,14.00
2019-03-21T14:32:46.092Z,6.40
2019-03-21T14:35:18.089Z,6.47
2019-03-21T14:37:50.059Z,5.10
2019-03-21T14:40:21.546Z,6.80
2019-03-21T14:42:52.561Z,6.53
2019-03-21T14:45:23.557Z,9.53
2019-03-21T14:47:56.367Z,5.77
2019-03-21T14:50:27.714Z,10.80
2019-03-21T14:52:58.644Z,5.83
2019-03-21T14:55:29.587Z,5.03
2019-03-21T14:58:00.386Z,5.83
2019-03-21T15:00:31.303Z,4.90
2019-03-21T15:03:03.941Z,5.80
2019-03-21T15:05:35.327Z,5.27
2019-03-21T15:08:06.449Z,8.27
2019-03-21T15:10:37.357Z,12.00
2019-03-21T15:13:08.309Z,8.40
2019-03-21T15:15:39.301Z,4.57
2019-03-21T15:18:10.141Z,8.07
2019-03-21T15:20:41.051Z,6.30
2019-03-21T15:23:13.663Z,11.77
2019-03-21T15:25:44.738Z,12.30
2019-03-21T15:28:15.739Z,6.80
2019-03-21T15:30:46.693Z,6.17
2019-03-21T15:33:17.609Z,5.00
2019-03-21T15:35:48.616Z,4.07
2019-03-21T15:38:19.533Z,5.70
2019-03-21T15:40:50.424Z,5.40
2019-03-21T15:43:22.424Z,6.87
2019-03-21T15:45:53.294Z,8.40
2019-03-21T15:48:24.317Z,10.60
2019-03-21T15:51:04.321Z,5.80
2019-03-21T15:53:27.994Z,5.23
2019-03-21T15:55:58.832Z,5.70
2019-03-21T15:58:29.755Z,4.70
2019-03-21T16:01:00.719Z,4.40
2019-03-21T16:03:32.995Z,5.07
2019-03-21T16:06:04.996Z,5.20
2019-03-21T16:08:35.813Z,5.87
2019-03-21T16:11:06.897Z,6.63
2019-03-21T16:13:39.007Z,8.37
2019-03-21T16:16:09.978Z,6.53
2019-03-21T16:18:40.853Z,5.30
2019-03-21T16:21:11.999Z,5.23
2019-03-21T16:23:42.871Z,5.17
2019-03-21T16:26:14.184Z,5.90
2019-03-21T16:28:45.053Z,20.67
2019-03-21T16:31:15.921Z,7.73
2019-03-21T16:33:48.009Z,6.90
2019-03-21T16:36:18.852Z,6.60
2019-03-21T16:38:49.695Z,7.70
2019-03-21T16:41:20.638Z,5.50
2019-03-21T16:43:51.493Z,10.83
2019-03-21T16:46:22.373Z,9.07
2019-03-21T16:48:54.121Z,8.33
2019-03-21T16:51:25.021Z,9.07
2019-03-21T16:53:55.861Z,20.90
2019-03-21T16:56:26.756Z,17.40
2019-03-21T16:58:58.903Z,11.53
2019-03-21T17:01:31.851Z,13.27
2019-03-21T17:04:02.721Z,11.53
2019-03-21T17:06:33.527Z,9.83
2019-03-21T17:09:05.724Z,11.70
2019-03-21T17:11:36.574Z,9.20
2019-03-21T17:14:07.434Z,10.97
2019-03-21T17:16:38.767Z,11.30
2019-03-21T17:19:09.611Z,25.77
2019-03-21T17:21:40.623Z,17.20
2019-03-21T17:24:11.484Z,16.07
2019-03-21T17:26:42.418Z,12.00
2019-03-21T17:29:13.349Z,9.50
2019-03-21T17:31:44.234Z,12.50
2019-03-21T17:34:16.200Z,15.50
2019-03-21T17:36:47.189Z,10.80
2019-03-21T17:39:18.190Z,10.97
2019-03-21T17:41:49.089Z,13.37
2019-03-21T17:44:21.147Z,12.27
2019-03-21T17:46:52.117Z,9.80
2019-03-21T17:49:23.199Z,21.07
2019-03-21T17:51:54.652Z,18.50
2019-03-21T17:54:25.521Z,14.13
2019-03-21T17:56:56.355Z,14.07
2019-03-21T17:59:27.308Z,13.83
2019-03-21T18:01:58.257Z,14.13
2019-03-21T18:04:29.375Z,12.77
2019-03-21T18:07:00.273Z,20.83
2019-03-21T18:09:31.169Z,12.40
2019-03-21T18:12:02.061Z,15.27
2019-03-21T18:14:32.910Z,15.60
2019-03-21T18:17:03.858Z,13.30
2019-03-21T18:19:34.755Z,14.30
2019-03-21T18:22:05.636Z,14.13
2019-03-21T18:24:36.557Z,18.57
2019-03-21T18:27:07.540Z,18.40
2019-03-21T18:29:38.386Z,16.80
2019-03-21T18:32:09.369Z,14.87
2019-03-21T18:34:41.503Z,19.43
2019-03-21T18:37:12.369Z,19.10
2019-03-21T18:39:43.317Z,15.50
2019-03-21T18:42:14.233Z,21.13
2019-03-21T18:44:45.241Z,21.53
2019-03-21T18:47:16.142Z,22.50
2019-03-21T18:49:47.257Z,17.40
2019-03-21T18:52:18.073Z,17.83
2019-03-21T18:54:48.989Z,25.90
2019-03-21T18:57:19.952Z,24.30
2019-03-21T18:59:50.850Z,21.80
2019-03-21T19:02:21.779Z,31.20
2019-03-21T19:04:53.061Z,22.27
2019-03-21T19:07:24.029Z,22.73
2019-03-21T19:09:54.953Z,24.60
2019-03-21T19:12:25.844Z,23.13
2019-03-21T19:14:56.729Z,19.30
2019-03-21T19:17:27.556Z,20.50
2019-03-21T19:19:59.427Z,19.40
2019-03-21T19:22:30.354Z,25.97
2019-03-21T19:25:01.226Z,22.67
2019-03-21T19:27:33.208Z,19.90
2019-03-21T19:30:04.760Z,18.57
2019-03-21T19:32:35.731Z,23.60
2019-03-21T19:35:08.314Z,23.50
2019-03-21T19:37:39.255Z,23.63
2019-03-21T19:40:10.365Z,25.90
2019-03-21T19:42:41.301Z,32.20
2019-03-21T19:45:12.749Z,21.83
2019-03-21T19:47:43.847Z,39.10
2019-03-21T19:50:15.106Z,25.90
2019-03-21T19:52:46.045Z,22.20
2019-03-21T19:55:25.822Z,22.70
2019-03-21T19:57:50.997Z,21.50
2019-03-21T20:00:22.360Z,23.57
2019-03-21T20:02:54.239Z,33.17
2019-03-21T20:05:25.282Z,22.43
2019-03-21T20:07:56.149Z,22.23
2019-03-21T20:10:27.059Z,21.13
2019-03-21T20:12:58.041Z,27.70
2019-03-21T20:15:28.975Z,20.93
2019-03-21T20:17:59.933Z,18.73
2019-03-21T20:20:31.144Z,29.77
2019-03-21T20:23:04.453Z,28.17
2019-03-21T20:25:42.890Z,25.90
2019-03-21T20:28:08.169Z,19.87
2019-03-21T20:30:39.175Z,23.73
2019-03-21T20:33:10.056Z,31.63
2019-03-21T20:35:40.897Z,24.47
2019-03-21T20:38:11.882Z,22.30
2019-03-21T20:40:42.791Z,25.93
2019-03-21T20:43:13.659Z,23.23
2019-03-21T20:45:44.525Z,24.33
2019-03-21T20:48:15.473Z,23.03
2019-03-21T20:50:51.212Z,29.03
2019-03-21T20:53:22.051Z,21.83
2019-03-21T20:55:53.839Z,21.83
2019-03-21T20:58:24.985Z,28.47
2019-03-21T21:00:55.933Z,30.40
2019-03-21T21:03:26.902Z,27.47
2019-03-21T21:05:57.849Z,18.00
2019-03-21T21:08:28.746Z,20.93
2019-03-21T21:10:59.617Z,21.03
2019-03-21T21:13:30.605Z,28.73
2019-03-21T21:16:01.506Z,26.20
2019-03-21T21:18:32.389Z,20.67
2019-03-21T21:21:03.367Z,17.43
2019-03-21T21:23:34.229Z,22.30
2019-03-21T21:26:05.973Z,19.10
2019-03-21T21:28:36.849Z,20.00
2019-03-21T21:31:07.750Z,25.90
2019-03-21T21:33:38.668Z,20.47
2019-03-21T21:36:21.413Z,18.23
2019-03-21T21:38:42.137Z,26.57
2019-03-21T21:41:13.084Z,26.07
2019-03-21T21:43:43.942Z,20.87
2019-03-21T21:46:16.179Z,33.20
2019-03-21T21:48:47.062Z,21.73
2019-03-21T21:51:17.927Z,19.43
2019-03-21T21:53:49.915Z,17.97
2019-03-21T21:56:20.767Z,25.90
2019-03-21T21:58:51.692Z,24.47
2019-03-21T22:01:24.931Z,22.73
2019-03-21T22:04:04.608Z,26.60
2019-03-21T22:06:28.281Z,18.43
2019-03-21T22:08:59.176Z,14.37
2019-03-21T22:11:30.018Z,25.73
2019-03-21T22:14:00.876Z,24.43
2019-03-21T22:16:31.781Z,23.70
2019-03-21T22:19:02.693Z,16.67
2019-03-21T22:21:33.595Z,26.40
2019-03-21T22:24:04.670Z,20.70
2019-03-21T22:26:35.604Z,46.30
2019-03-21T22:29:06.530Z,22.20
2019-03-21T22:31:37.497Z,19.60
2019-03-21T22:34:08.361Z,26.17
2019-03-21T22:36:48.967Z,26.50
2019-03-21T22:39:11.743Z,27.57
2019-03-21T22:41:42.650Z,22.33
2019-03-21T22:44:13.507Z,17.87
2019-03-21T22:46:44.421Z,22.33
2019-03-21T22:49:15.370Z,15.67
2019-03-21T22:51:46.237Z,26.33
2019-03-21T22:54:17.127Z,19.13
2019-03-21T22:56:48.085Z,16.20
2019-03-21T22:59:18.987Z,19.43
2019-03-21T23:01:49.827Z,22.07
2019-03-21T23:04:20.758Z,24.57
2019-03-21T23:06:51.756Z,21.03
2019-03-21T23:09:22.721Z,21.07
2019-03-21T23:11:53.653Z,24.23
2019-03-21T23:14:24.570Z,19.20
2019-03-21T23:16:55.491Z,14.17
2019-03-21T23:19:26.390Z,25.70
2019-03-21T23:21:57.316Z,20.17
2019-03-21T23:24:28.195Z,19.00
2019-03-21T23:26:59.135Z,21.03
2019-03-21T23:29:30.055Z,17.77
2019-03-21T23:32:02.011Z,15.23
2019-03-21T23:34:32.858Z,17.20
2019-03-21T23:37:05.168Z,20.43
2019-03-21T23:39:36.006Z,22.60
2019-03-21T23:42:06.880Z,20.93
2019-03-21T23:44:38.117Z,19.70
2019-03-21T23:47:09.011Z,15.90
2019-03-21T23:49:39.986Z,19.60
2019-03-21T23:52:10.850Z,20.83
2019-03-21T23:54:41.756Z,28.33
2019-03-21T23:57:12.637Z,25.57
2019-03-21T23:59:43.557Z,16.87
